ЗЦ Екатеринбург

Зональный Центр Единой Системы Организации Воздушного Движения (ЗЦ ЕС ОрВД) Екатеринбург является структурным подразделением дивизиона VATRUS сети VATSIM.

В состав ЗЦ входят РПИ Екатеринбурга и Тюмени, которые вместе покрывают воздушное пространство над территорией Уральского федерального округа Российской Федерации общей площадью более 2 млн км². Зональный центр располагается над Уральским горным хребтом от южных границ до северных морей, являясь, таким образом, соединительным звеном Европейской и Азиатской частями России.

В сети ВАТСИМ обслуживание воздушного движения над территорией ЗЦ Екатеринбург осуществляет позиция RU-WSC_FSS, позывной "Западная Сибирь-Контроль", частота 135.350.

Мы в Контакте

Лого ЗЦ Екатеринбург
Руководитель региона

Kirill Rudavin

Контакты

Инструкторы региона
Andrey Tonkachev * (Senior Student)
Anton Agaev (Instructor)
Dmitriy Bannov * (Controller)
Ivan Skatov (Instructor)
Kirill Rudavin (Instructor)
Maxim Gerasimov (Instructor)
Включает в себя

РПИ Екатеринбург
РПИ Тюмень

Диспетчеры региона

Диспетчер Рейтинг Допуски *
Andrew Zolotuhin Controller USTV_CTR
Anton Agaev Instructor USSV_CTR, USTV_CTR
Anton Fedosin Controller USSV_CTR
Dmitriy Bannov Controller USSV_CTR, USTV_CTR
Kirill Rudavin Instructor USSV_CTR, USTV_CTR
Maxim Gerasimov Instructor USSV_CTR, USTV_CTR
Pavel Pyterikov Senior Student USTV_CTR *
Vadim Filev Controller USSV_CTR
Aleksey Garmash Student USSS_GND
Alexander Nesterov Student USSS_GND
Alexander Shkut Student 2 USCM_TWR, USSS_APP*, USUU_TWR
Alexandr Jaschinsky Student USSS_TWR*, USSS_GND
Andrey Bezverkhov Senior Student USSS_APP, USRR_APP(USRR+USNN+USRO+USRK)
Andrey Gridchin Controller USSS_APP
Andrey Shestakov Senior Student USPP_APP, USUU_TWR, USCM_TWR, USSS_APP, USCC_APP, USTR_R_APP
Andrey Tonkachev Senior Student USSS_APP, USUU_TWR, USCM_TWR, USPP_APP, USCC_APP
Artem Sergeev Student USTR_GND
Artem Stroganov Student USTR_GND
Egor Gorelov Student USTR_GND
Egor Nosov Student USSS_GND
Eldar Aliev Student 2 USPP_TWR, USCC_TWR, USSS_R_APP*
Farid Bakirov Senior Student USSS_APP
Ivan Malygin Senior Student USPP_APP, USUU_TWR, USCM_TWR, USSS_APP, USCC_APP
Ivan Zhuravlev Student 2 USTR_TWR, USRR_R_APP*, USRR_TWR
Kirill Ardatov Student 2 USSS_TWR, USTR_R_APP*, USTR_TWR, USDD_TWR
Kirill Shabunin Senior Controller USSS_APP
Konstantin Norkin Student 2 USSS_TWR, USTR_TWR
Nika Avdalov Student 2 USPP_TWR, USSS_TWR, USCC_TWR
Nikita Frolov Student USTR_GND
Nikita Gonjarov Student USHH_TWR*, USTR_GND
Stepan Seleznev Student 2 USSS_GND
Timur isikdemir Student USSS_GND
Vadim Kvitko Student USTR_GND
Vladislav Kepkov Student 2 USCC_TWR
Vsevolod Skryabin Student 2 USSS_TWR!!!, USTR_TWR, USRR_TWR

Аэропорты региона

ICAO Город Название Погода
USSS Екатеринбург Кольцово USSS 161800Z 27006MPS 9999 SCT036 M15/M17 Q0987 R26L/320042 NOSIG RMK QFE720/0960
USHQ Белоярский Белоярский
USHB Берёзово Берёзово
USII Ижевск Ижевск
USKK Киров Киров
USRK Когалым Когалым
USUU Курган Курган
USCM Магнитогорск Магнитогорск USCM 161800Z 24012MPS 5000 BLSN BKN020 M14/M18 Q0993 R18/910152 TEMPO 25018MPS 2000 BLSN VV005 RMK QFE707
USMM Надым Надым
USNN Нижневартовск Нижневартовск USNN 161800Z 11008MPS 9999 OVC007 M07/M08 Q0995 R03/39//33 NOSIG RMK QFE743
USMU Новый Уренгой Новый Уренгой
USRO Ноябрьск Ноябрьск
USHN Нягань Нягань
USPP Пермь Пермь USPP 161800Z 25003MPS 7000 -SN BKN023 M17/M20 Q0991 R21/490535 TEMPO BKN003 RMK QFE733
USDA Сабетта Сабетта USDA 161800Z AUTO 17003MPS 2300 R04/P2000N // ///026/// M14/M15 Q0987 RMK QFE739/0985
USDD Салехард Салехард
USHS Советский Советский
USRR Сургут Сургут USRR 161800Z 12006MPS 9999 BKN005 BKN026 M07/M08 Q0991 R07/95//35 TEMPO 2000 SN RMK OBST OBSC QFE738
USTR Тюмень Тюмень USTR 161800Z 20005MPS 3500 -SHSN BKN017CB OVC036 M04/M05 Q0979 R21/390034 R12/////99 TEMPO 27008G15MPS 0500 +SHSN BLSN VV002
USHU Урай Урай
USHH Ханты-Мансийск Ханты-Мансийск USHH 161800Z 09005MPS 1700 1400NE R06/1800U SHSN BKN013CB M04/M05 Q0985 R06/491032 TEMPO 0500 +SHSN BKN003 OVC010CB
USCC Челябинск Челябинск USCC 161800Z 28007MPS 9999 DRSN SCT030CB M12/M18 Q0989 R27/590534 NOSIG RMK QFE722
USHI Игрим Игрим
USDP Красноселькуп Красноселькуп
USDK Мыс Каменный Мыс Каменный
USDS Тарко-Сале Тарко-Сале